createdAt,value
2019-05-30T00:00:53.894Z,71.39
2019-05-30T00:03:25.481Z,71.48
2019-05-30T00:05:58.324Z,71.72
2019-05-30T00:08:30.057Z,70.46
2019-05-30T00:11:02.791Z,70.91
2019-05-30T00:13:34.449Z,71.19
2019-05-30T00:16:06.223Z,71.75
2019-05-30T00:18:38.007Z,70.58
2019-05-30T00:21:09.658Z,71.36
2019-05-30T00:23:41.351Z,70.54
2019-05-30T00:26:16.410Z,71.18
2019-05-30T00:28:47.868Z,72.92
2019-05-30T00:31:19.629Z,72.94
2019-05-30T00:33:51.424Z,73.35
2019-05-30T00:36:23.302Z,71.90
2019-05-30T00:38:55.625Z,72.18
2019-05-30T00:41:27.471Z,72.68
2019-05-30T00:43:59.930Z,72.50
2019-05-30T00:46:31.737Z,73.19
2019-05-30T00:49:04.505Z,72.51
2019-05-30T00:51:36.114Z,72.71
2019-05-30T00:54:07.970Z,72.47
2019-05-30T00:56:39.752Z,72.42
2019-05-30T00:59:11.541Z,73.11
2019-05-30T01:01:43.300Z,72.17
2019-05-30T01:04:14.995Z,72.56
2019-05-30T01:06:46.666Z,72.19
2019-05-30T01:09:18.426Z,73.22
2019-05-30T01:11:50.223Z,71.96
2019-05-30T01:14:21.999Z,71.44
2019-05-30T01:16:53.774Z,70.62
2019-05-30T01:19:25.657Z,69.73
2019-05-30T01:21:57.412Z,69.99
2019-05-30T01:24:29.289Z,71.29
2019-05-30T01:27:01.370Z,71.16
2019-05-30T01:29:33.270Z,71.12
2019-05-30T01:32:07.616Z,70.91
2019-05-30T01:34:39.361Z,69.63
2019-05-30T01:37:11.063Z,69.30
2019-05-30T01:39:42.729Z,69.24
2019-05-30T01:42:14.503Z,69.47
2019-05-30T01:44:46.284Z,69.34
2019-05-30T01:47:18.144Z,69.63
2019-05-30T01:49:49.921Z,69.54
2019-05-30T01:52:22.020Z,70.15
2019-05-30T01:54:53.797Z,70.08
2019-05-30T01:57:25.572Z,71.58
2019-05-30T01:59:58.616Z,72.68
2019-05-30T02:02:30.251Z,72.46
2019-05-30T02:05:03.022Z,71.77
2019-05-30T02:07:34.911Z,71.01
2019-05-30T02:10:07.440Z,71.40
2019-05-30T02:12:38.906Z,70.73
2019-05-30T02:15:10.957Z,68.85
2019-05-30T02:17:42.529Z,68.51
2019-05-30T02:20:15.361Z,69.00
2019-05-30T02:22:46.800Z,69.76
2019-05-30T02:25:19.127Z,71.11
2019-05-30T02:27:50.574Z,70.11
2019-05-30T02:30:22.537Z,68.87
2019-05-30T02:32:54.519Z,69.87
2019-05-30T02:35:26.524Z,69.08
2019-05-30T02:37:58.389Z,69.36
2019-05-30T02:40:31.199Z,69.62
2019-05-30T02:43:03.690Z,71.17
2019-05-30T02:45:35.893Z,71.15
2019-05-30T02:48:09.700Z,69.64
2019-05-30T02:50:41.374Z,69.69
2019-05-30T02:53:14.177Z,67.95
2019-05-30T02:55:45.931Z,68.11
2019-05-30T02:58:17.708Z,67.94
2019-05-30T03:00:49.413Z,66.91
2019-05-30T03:03:21.181Z,66.23
2019-05-30T03:05:52.938Z,65.85
2019-05-30T03:08:24.933Z,65.74
2019-05-30T03:10:56.615Z,66.33
2019-05-30T03:13:28.589Z,65.68
2019-05-30T03:16:01.949Z,62.89
2019-05-30T03:18:33.258Z,62.35
2019-05-30T03:21:06.397Z,60.80
2019-05-30T03:23:38.725Z,62.21
2019-05-30T03:26:12.988Z,60.63
2019-05-30T03:28:43.967Z,59.65
2019-05-30T03:31:27.669Z,60.22
2019-05-30T03:33:51.522Z,59.19
2019-05-30T03:36:30.107Z,57.12
2019-05-30T03:38:56.891Z,60.50
2019-05-30T03:41:28.875Z,60.21
2019-05-30T03:44:00.951Z,61.52
2019-05-30T03:46:35.269Z,64.49
2019-05-30T03:49:10.742Z,65.46
2019-05-30T03:51:45.923Z,63.56
2019-05-30T03:54:18.999Z,64.98
2019-05-30T03:57:09.161Z,63.78
2019-05-30T03:59:47.818Z,63.74
2019-05-30T04:02:22.357Z,63.17
2019-05-30T04:05:03.278Z,59.80
2019-05-30T04:07:37.980Z,60.30
2019-05-30T04:10:13.411Z,60.20
2019-05-30T04:12:56.899Z,60.37
2019-05-30T04:15:36.137Z,60.65
2019-05-30T04:18:09.444Z,61.11
2019-05-30T04:20:40.980Z,59.45
2019-05-30T04:23:14.649Z,59.50
2019-05-30T04:25:46.172Z,58.77
2019-05-30T04:28:18.685Z,57.38
2019-05-30T04:30:50.581Z,58.10
2019-05-30T04:33:32.599Z,57.72
2019-05-30T04:35:55.579Z,56.33
2019-05-30T04:38:27.414Z,55.15
2019-05-30T04:40:59.194Z,56.40
2019-05-30T04:43:30.981Z,54.87
2019-05-30T04:46:02.837Z,56.54
2019-05-30T04:48:34.644Z,56.39
2019-05-30T04:51:06.409Z,56.32
2019-05-30T04:53:38.186Z,53.56
2019-05-30T04:56:10.353Z,56.25
2019-05-30T04:58:42.983Z,54.82
2019-05-30T05:01:15.538Z,54.82
2019-05-30T05:03:47.422Z,54.66
2019-05-30T05:06:19.880Z,54.13
2019-05-30T05:08:51.708Z,54.13
2019-05-30T05:11:25.390Z,53.64
2019-05-30T05:13:56.697Z,53.28
2019-05-30T05:16:35.411Z,54.06
2019-05-30T05:19:01.584Z,53.76
2019-05-30T05:21:33.353Z,53.32
2019-05-30T05:24:05.027Z,53.66
2019-05-30T05:26:36.789Z,52.17
2019-05-30T05:29:08.586Z,51.62
2019-05-30T05:31:40.235Z,52.10
2019-05-30T05:34:12.031Z,52.00
2019-05-30T05:36:43.925Z,51.12
2019-05-30T05:39:16.151Z,50.39
2019-05-30T05:41:48.060Z,49.66
2019-05-30T05:44:20.367Z,51.43
2019-05-30T05:46:52.141Z,49.69
2019-05-30T05:49:24.927Z,52.06
2019-05-30T05:51:56.599Z,51.32
2019-05-30T05:54:29.247Z,51.25
2019-05-30T05:57:02.121Z,51.62
2019-05-30T05:59:33.879Z,52.14
2019-05-30T06:02:05.769Z,52.64
2019-05-30T06:04:37.538Z,49.60
2019-05-30T06:07:09.213Z,51.31
2019-05-30T06:09:40.990Z,50.98
2019-05-30T06:12:12.747Z,47.43
2019-05-30T06:14:44.439Z,50.01
2019-05-30T06:17:16.966Z,50.54
2019-05-30T06:19:48.694Z,51.36
2019-05-30T06:22:21.441Z,48.83
2019-05-30T06:24:52.963Z,47.54
2019-05-30T06:27:26.041Z,50.17
2019-05-30T06:29:57.644Z,49.13
2019-05-30T06:32:29.436Z,51.35
2019-05-30T06:35:01.194Z,47.44
2019-05-30T06:37:32.990Z,48.63
2019-05-30T06:40:06.504Z,45.95
2019-05-30T06:42:37.973Z,45.44
2019-05-30T06:45:10.624Z,47.35
2019-05-30T06:47:42.140Z,44.81
2019-05-30T06:50:14.165Z,44.56
2019-05-30T06:52:45.902Z,46.13
2019-05-30T06:55:17.702Z,45.29
2019-05-30T06:57:49.860Z,43.80
2019-05-30T07:00:22.205Z,43.17
2019-05-30T07:02:54.181Z,44.93
2019-05-30T07:05:27.870Z,44.99
2019-05-30T07:07:59.010Z,45.44
2019-05-30T07:10:31.138Z,43.76
2019-05-30T07:13:02.975Z,47.27
2019-05-30T07:15:37.348Z,43.15
2019-05-30T07:18:09.391Z,42.77
2019-05-30T07:20:41.151Z,45.62
2019-05-30T07:23:12.930Z,42.84
2019-05-30T07:25:44.722Z,46.09
2019-05-30T07:28:23.705Z,43.28
2019-05-30T07:30:56.802Z,45.73
2019-05-30T07:33:28.525Z,44.17
2019-05-30T07:36:00.460Z,45.60
2019-05-30T07:38:32.643Z,45.96
2019-05-30T07:41:04.772Z,44.44
2019-05-30T07:43:36.146Z,46.13
2019-05-30T07:46:08.003Z,42.46
2019-05-30T07:48:41.072Z,43.46
2019-05-30T07:51:15.073Z,42.49
2019-05-30T07:53:46.746Z,42.49
2019-05-30T07:56:18.519Z,41.90
2019-05-30T07:58:51.303Z,41.44
2019-05-30T08:01:23.076Z,41.80
2019-05-30T08:03:54.965Z,42.07
2019-05-30T08:06:27.470Z,43.57
2019-05-30T08:08:59.348Z,41.44
2019-05-30T08:11:31.110Z,40.81
2019-05-30T08:14:02.879Z,40.68
2019-05-30T08:16:35.493Z,40.25
2019-05-30T08:19:07.251Z,41.99
2019-05-30T08:21:38.946Z,41.85
2019-05-30T08:24:10.719Z,39.31
2019-05-30T08:26:42.497Z,39.28
2019-05-30T08:29:14.272Z,38.70
2019-05-30T08:31:46.053Z,38.43
2019-05-30T08:34:17.839Z,39.54
2019-05-30T08:36:49.251Z,39.33
2019-05-30T08:39:20.691Z,37.97
2019-05-30T08:41:52.068Z,38.35
2019-05-30T08:44:23.793Z,38.13
2019-05-30T08:46:55.573Z,37.33
2019-05-30T08:49:27.156Z,38.49
2019-05-30T08:51:58.922Z,37.50
2019-05-30T08:54:30.812Z,37.51
2019-05-30T08:57:02.590Z,36.92
2019-05-30T08:59:34.531Z,37.80
2019-05-30T09:02:06.449Z,36.14
2019-05-30T09:04:38.042Z,35.71
2019-05-30T09:07:10.194Z,37.28
2019-05-30T09:09:42.482Z,35.83
2019-05-30T09:12:13.966Z,36.39
2019-05-30T09:14:46.853Z,35.34
2019-05-30T09:17:18.667Z,37.76
2019-05-30T09:19:50.409Z,35.22
2019-05-30T09:22:22.300Z,34.85
2019-05-30T09:24:54.078Z,36.88
2019-05-30T09:27:25.855Z,35.25
2019-05-30T09:29:57.630Z,36.43
2019-05-30T09:32:29.408Z,35.28
2019-05-30T09:35:01.193Z,36.11
2019-05-30T09:37:32.842Z,35.22
2019-05-30T09:40:07.598Z,32.79
2019-05-30T09:42:40.823Z,34.05
2019-05-30T09:45:15.041Z,33.23
2019-05-30T09:47:47.499Z,32.24
2019-05-30T09:50:20.509Z,33.12
2019-05-30T09:52:52.434Z,35.18
2019-05-30T09:55:25.576Z,33.44
2019-05-30T09:57:56.989Z,32.55
2019-05-30T10:00:30.155Z,33.86
2019-05-30T10:03:01.550Z,32.36
2019-05-30T10:05:33.444Z,33.53
2019-05-30T10:08:05.550Z,32.28
2019-05-30T10:10:36.984Z,32.92
2019-05-30T10:13:08.673Z,33.10
2019-05-30T10:15:40.867Z,35.39
2019-05-30T10:18:12.518Z,33.11
2019-05-30T10:20:44.451Z,32.71
2019-05-30T10:23:17.210Z,33.56
2019-05-30T10:25:49.537Z,34.08
2019-05-30T10:28:21.380Z,33.54
2019-05-30T10:30:57.268Z,34.55
2019-05-30T10:33:26.551Z,32.63
2019-05-30T10:35:58.450Z,32.16
2019-05-30T10:38:30.206Z,35.06
2019-05-30T10:41:01.981Z,33.79
2019-05-30T10:43:33.760Z,32.85
2019-05-30T10:46:05.559Z,31.38
2019-05-30T10:48:37.213Z,33.55
2019-05-30T10:51:09.002Z,31.84
2019-05-30T10:53:40.784Z,31.50
2019-05-30T10:56:13.291Z,32.81
2019-05-30T10:58:46.588Z,34.87
2019-05-30T11:01:18.343Z,32.89
2019-05-30T11:03:50.373Z,32.61
2019-05-30T11:06:34.493Z,32.58
2019-05-30T11:09:06.516Z,32.63
2019-05-30T11:11:37.859Z,31.92
2019-05-30T11:14:09.399Z,31.70
2019-05-30T11:16:41.176Z,34.00
2019-05-30T11:19:12.967Z,34.94
2019-05-30T11:21:44.727Z,33.22
2019-05-30T11:24:16.503Z,33.20
2019-05-30T11:26:50.449Z,33.52
2019-05-30T11:29:21.525Z,30.81
2019-05-30T11:31:54.937Z,30.75
2019-05-30T11:34:26.801Z,32.02
2019-05-30T11:36:59.334Z,31.29
2019-05-30T11:39:31.686Z,31.56
2019-05-30T11:42:03.448Z,31.08
2019-05-30T11:44:35.236Z,30.57
2019-05-30T11:47:07.114Z,31.63
2019-05-30T11:49:38.792Z,31.61
2019-05-30T11:52:10.649Z,32.59
2019-05-30T11:54:42.444Z,33.95
2019-05-30T11:57:14.423Z,33.21
2019-05-30T11:59:46.205Z,34.67
2019-05-30T12:02:18.078Z,33.63
2019-05-30T12:04:50.524Z,33.35
2019-05-30T12:07:35.683Z,35.31
2019-05-30T12:09:56.902Z,35.61
2019-05-30T12:12:28.544Z,36.57
2019-05-30T12:15:01.492Z,36.59
2019-05-30T12:17:33.240Z,36.21
2019-05-30T12:20:06.103Z,35.89
2019-05-30T12:22:37.601Z,36.31
2019-05-30T12:25:09.545Z,35.25
2019-05-30T12:27:41.074Z,37.83
2019-05-30T12:30:13.526Z,38.72
2019-05-30T12:32:45.026Z,35.92
2019-05-30T12:35:17.210Z,36.98
2019-05-30T12:37:54.819Z,39.96
2019-05-30T12:40:22.077Z,40.36
2019-05-30T12:49:27.938Z,38.79
2019-05-30T12:52:00.614Z,39.19
2019-05-30T12:54:32.314Z,39.79
2019-05-30T12:57:04.286Z,40.10
2019-05-30T12:59:35.906Z,39.41
2019-05-30T13:02:07.740Z,39.01
2019-05-30T13:04:40.335Z,37.32
2019-05-30T13:07:11.913Z,37.47
2019-05-30T13:09:43.787Z,36.42
2019-05-30T13:12:15.674Z,37.60
2019-05-30T13:14:47.527Z,38.32
2019-05-30T13:17:20.131Z,40.32
2019-05-30T13:19:51.610Z,39.04
2019-05-30T13:22:25.123Z,38.98
2019-05-30T13:24:57.525Z,39.78
2019-05-30T13:27:29.270Z,40.06
2019-05-30T13:30:02.270Z,40.35
2019-05-30T13:32:35.279Z,40.43
2019-05-30T13:35:08.192Z,40.64
2019-05-30T13:37:40.490Z,40.27
2019-05-30T13:40:24.193Z,39.98
2019-05-30T13:42:46.294Z,40.63
2019-05-30T13:45:18.787Z,41.29
2019-05-30T13:47:50.561Z,41.57
2019-05-30T13:50:22.934Z,41.30
2019-05-30T13:52:54.734Z,42.59
2019-05-30T13:55:28.266Z,41.98
2019-05-30T13:58:00.121Z,41.91
2019-05-30T14:00:31.880Z,43.48
2019-05-30T14:03:04.082Z,43.58
2019-05-30T14:05:35.968Z,43.29
2019-05-30T14:08:10.640Z,43.94
2019-05-30T14:10:41.052Z,43.95
2019-05-30T14:13:12.828Z,47.14
2019-05-30T14:15:44.593Z,50.06
2019-05-30T14:18:19.178Z,50.98
2019-05-30T14:20:51.003Z,52.60
2019-05-30T14:23:22.779Z,52.71
2019-05-30T14:25:54.455Z,55.01
2019-05-30T14:28:26.230Z,51.59
2019-05-30T14:30:58.025Z,52.20
2019-05-30T14:33:29.701Z,50.44
2019-05-30T14:36:04.591Z,49.80
2019-05-30T14:38:34.709Z,48.63
2019-05-30T14:41:06.959Z,47.79
2019-05-30T14:43:38.859Z,48.42
2019-05-30T14:46:10.628Z,48.35
2019-05-30T14:48:42.080Z,47.70
2019-05-30T14:51:13.874Z,48.59
2019-05-30T14:53:45.636Z,48.69
2019-05-30T14:56:17.640Z,47.99
2019-05-30T14:58:49.454Z,48.49
2019-05-30T15:01:21.290Z,49.35
2019-05-30T15:03:52.961Z,49.40
2019-05-30T15:06:24.843Z,50.49
2019-05-30T15:08:56.620Z,50.36
2019-05-30T15:11:28.479Z,49.25
2019-05-30T15:14:00.275Z,49.04
2019-05-30T15:16:32.033Z,49.00
2019-05-30T15:19:04.200Z,48.58
2019-05-30T15:21:36.626Z,49.28
2019-05-30T15:24:09.786Z,46.83
2019-05-30T15:26:41.900Z,49.89
2019-05-30T15:29:14.171Z,46.63
2019-05-30T15:31:45.882Z,49.63
2019-05-30T15:34:17.561Z,48.38
2019-05-30T15:36:49.333Z,49.98
2019-05-30T15:39:32.512Z,49.64
2019-05-30T15:41:54.605Z,49.29
2019-05-30T15:44:26.300Z,51.56
2019-05-30T15:46:58.057Z,52.00
2019-05-30T15:49:29.849Z,56.62
2019-05-30T15:52:01.634Z,56.55
2019-05-30T15:54:33.386Z,53.99
2019-05-30T15:57:05.284Z,53.59
2019-05-30T15:59:37.350Z,54.65
2019-05-30T16:02:09.905Z,55.87
2019-05-30T16:04:41.430Z,57.60
2019-05-30T16:07:15.272Z,57.04
2019-05-30T16:09:47.660Z,54.62
2019-05-30T16:12:19.439Z,51.98
2019-05-30T16:14:51.813Z,49.46
2019-05-30T16:17:23.593Z,51.01
2019-05-30T16:19:56.024Z,52.98
2019-05-30T16:22:28.370Z,55.56
2019-05-30T16:25:00.367Z,58.13
2019-05-30T16:27:32.641Z,59.50
2019-05-30T16:30:09.313Z,59.28
2019-05-30T16:32:41.081Z,60.71
2019-05-30T16:35:14.052Z,61.54
2019-05-30T16:37:45.761Z,60.73
2019-05-30T16:40:18.401Z,60.42
2019-05-30T16:42:50.048Z,60.77
2019-05-30T16:45:24.723Z,61.91
2019-05-30T16:47:55.031Z,61.59
2019-05-30T16:57:20.835Z,58.58
2019-05-30T16:59:52.801Z,59.43
2019-05-30T17:02:24.557Z,60.32
2019-05-30T17:04:56.235Z,61.01
2019-05-30T17:07:28.028Z,61.53
2019-05-30T17:09:59.790Z,64.42
2019-05-30T17:12:31.563Z,66.75
2019-05-30T17:15:05.301Z,68.02
2019-05-30T17:17:36.772Z,68.35
2019-05-30T17:20:09.513Z,69.01
2019-05-30T17:22:41.658Z,68.43
2019-05-30T17:25:13.418Z,68.77
2019-05-30T17:27:44.906Z,70.99
2019-05-30T17:30:17.581Z,71.65
2019-05-30T17:32:49.358Z,72.36
2019-05-30T17:35:22.033Z,71.27
2019-05-30T17:37:53.625Z,72.80
2019-05-30T17:40:41.199Z,73.53
2019-05-30T17:42:59.453Z,75.31
2019-05-30T17:45:31.230Z,76.67
2019-05-30T17:48:16.068Z,77.13
2019-05-30T17:50:36.194Z,77.07
2019-05-30T17:53:07.989Z,75.58
2019-05-30T17:55:39.763Z,74.92
2019-05-30T17:58:11.540Z,74.29
2019-05-30T18:00:43.320Z,71.93
2019-05-30T18:03:15.284Z,71.49
2019-05-30T18:05:47.365Z,72.77
2019-05-30T18:08:19.242Z,73.70
2019-05-30T18:10:54.139Z,73.61
2019-05-30T18:13:25.028Z,73.51
2019-05-30T18:15:56.744Z,74.14
2019-05-30T18:18:29.329Z,74.79
2019-05-30T18:21:00.988Z,75.13
2019-05-30T18:23:32.766Z,74.06
2019-05-30T18:26:04.646Z,73.76
2019-05-30T18:28:36.320Z,73.78
2019-05-30T18:31:08.095Z,76.02
2019-05-30T18:33:40.197Z,75.47
2019-05-30T18:36:11.972Z,75.97
2019-05-30T18:38:43.740Z,76.25
2019-05-30T18:41:16.629Z,77.37
2019-05-30T18:43:48.329Z,76.78
2019-05-30T18:46:20.206Z,75.90
2019-05-30T18:48:51.985Z,75.92
2019-05-30T18:51:24.083Z,76.96
2019-05-30T18:53:55.950Z,75.72
2019-05-30T18:56:28.698Z,75.49
2019-05-30T18:59:00.505Z,75.19
2019-05-30T19:01:33.646Z,75.64
2019-05-30T19:04:08.945Z,74.39
2019-05-30T19:06:40.971Z,72.33
2019-05-30T19:09:12.765Z,73.84
2019-05-30T19:11:44.523Z,74.76
2019-05-30T19:14:16.585Z,75.29
2019-05-30T19:16:51.144Z,76.20
2019-05-30T19:19:25.856Z,75.94
2019-05-30T19:21:57.560Z,75.83
2019-05-30T19:24:30.028Z,78.31
2019-05-30T19:27:07.555Z,81.39
2019-05-30T19:29:39.415Z,83.88
2019-05-30T19:32:11.316Z,84.45
2019-05-30T19:34:43.491Z,84.26
2019-05-30T19:37:15.685Z,84.00
2019-05-30T19:39:47.460Z,83.54
2019-05-30T19:42:19.360Z,83.71
2019-05-30T19:44:51.223Z,83.93
2019-05-30T19:47:25.443Z,83.65
2019-05-30T19:49:56.906Z,84.26
2019-05-30T19:52:30.646Z,84.44
2019-05-30T19:55:02.521Z,84.45
2019-05-30T19:57:35.575Z,85.04
2019-05-30T20:00:09.040Z,84.85
2019-05-30T20:02:40.692Z,85.21
2019-05-30T20:05:14.000Z,85.99
2019-05-30T20:07:45.592Z,86.49
2019-05-30T20:10:20.013Z,86.47
2019-05-30T20:12:51.601Z,86.38
2019-05-30T20:15:24.199Z,85.56
2019-05-30T20:17:56.056Z,85.23
2019-05-30T20:20:28.061Z,85.44
2019-05-30T20:23:00.231Z,86.06
2019-05-30T20:25:32.682Z,85.51
2019-05-30T20:28:04.291Z,84.11
2019-05-30T20:30:37.334Z,82.17
2019-05-30T20:33:10.022Z,81.09
2019-05-30T20:35:43.310Z,81.11
2019-05-30T20:38:15.300Z,81.05
2019-05-30T20:40:47.217Z,82.27
2019-05-30T20:43:18.994Z,83.16
2019-05-30T20:45:50.713Z,81.87
2019-05-30T20:48:22.405Z,84.93
2019-05-30T20:50:54.165Z,85.26
2019-05-30T20:53:25.943Z,84.76
2019-05-30T20:55:57.838Z,84.73
2019-05-30T20:58:29.600Z,85.10
2019-05-30T21:01:01.375Z,85.81
2019-05-30T21:03:33.480Z,85.86
2019-05-30T21:06:05.461Z,86.40
2019-05-30T21:08:39.020Z,86.39
2019-05-30T21:11:11.261Z,86.91
2019-05-30T21:13:44.308Z,87.74
2019-05-30T21:16:18.389Z,87.80
2019-05-30T21:18:52.024Z,88.21
2019-05-30T21:21:23.787Z,87.63
2019-05-30T21:23:55.650Z,87.30
2019-05-30T21:26:27.631Z,87.76
2019-05-30T21:28:59.604Z,88.83
2019-05-30T21:31:31.490Z,88.27
2019-05-30T21:34:03.484Z,88.60
2019-05-30T21:36:35.469Z,89.17
2019-05-30T21:39:08.270Z,88.35
2019-05-30T21:41:40.162Z,88.42
2019-05-30T21:44:11.922Z,88.21
2019-05-30T21:46:44.777Z,88.79
2019-05-30T21:49:16.386Z,89.11
2019-05-30T21:51:48.061Z,89.18
2019-05-30T21:54:19.828Z,89.06
2019-05-30T21:56:51.608Z,88.61
2019-05-30T21:59:23.427Z,88.35
2019-05-30T22:01:57.275Z,88.13
2019-05-30T22:04:28.695Z,87.79
2019-05-30T22:07:00.674Z,86.53
2019-05-30T22:09:32.537Z,86.32
2019-05-30T22:12:04.642Z,86.71
2019-05-30T22:14:36.109Z,86.55
2019-05-30T22:17:07.968Z,87.09
2019-05-30T22:19:39.761Z,87.82
2019-05-30T22:22:11.639Z,88.14
2019-05-30T22:24:44.199Z,88.26
2019-05-30T22:27:15.808Z,88.22
2019-05-30T22:29:48.504Z,88.25
2019-05-30T22:32:20.382Z,88.28
2019-05-30T22:34:52.969Z,87.79
2019-05-30T22:37:24.856Z,87.67
2019-05-30T22:39:56.634Z,87.67
2019-05-30T22:42:28.391Z,87.44
2019-05-30T22:45:00.187Z,87.31
2019-05-30T22:47:32.066Z,87.70
2019-05-30T22:50:05.056Z,87.45
2019-05-30T22:52:36.542Z,87.58
2019-05-30T22:55:08.317Z,87.79
2019-05-30T22:57:40.075Z,87.83
2019-05-30T23:00:12.075Z,88.21
2019-05-30T23:02:43.705Z,87.92
2019-05-30T23:05:15.506Z,87.42
2019-05-30T23:07:47.474Z,88.15
2019-05-30T23:10:19.288Z,88.34
2019-05-30T23:12:51.894Z,87.93
2019-05-30T23:15:23.759Z,88.08
2019-05-30T23:17:56.732Z,88.56
2019-05-30T23:20:28.319Z,89.16
2019-05-30T23:23:00.212Z,89.53
2019-05-30T23:25:32.091Z,89.53
2019-05-30T23:28:03.847Z,89.46
2019-05-30T23:30:35.544Z,89.40
2019-05-30T23:33:07.424Z,89.44
2019-05-30T23:35:39.097Z,89.55
2019-05-30T23:38:10.873Z,90.30
2019-05-30T23:40:42.654Z,90.74
2019-05-30T23:43:14.450Z,91.33
2019-05-30T23:45:46.201Z,91.79
2019-05-30T23:48:17.980Z,91.96
2019-05-30T23:50:49.823Z,92.10
2019-05-30T23:53:21.634Z,92.24
2019-05-30T23:55:54.277Z,92.25
2019-05-30T23:58:25.935Z,91.86
